Time;durP1;ratioP1;P1;durP2;ratioP2;P2;SDS_P1;SDS_P2;PMS_P1;PMS_P2;Temp;Humidity;BMP_temperature;BMP_pressure;BME280_temperature;BME280_humidity;BME280_pressure;Samples;Min_cycle;Max_cycle;Signal;HPM_P1;HPM_P2
2023/05/20 00:00:11;;;;;;;11.63;7.20;;;;;;;-143.84;59.72;45089.06;5070391;28;20499;-52
2023/05/20 00:02:38;;;;;;;8.37;6.30;;;;;;;-143.84;59.90;45052.88;5070211;28;20445;-53
2023/05/20 00:05:05;;;;;;;14.60;7.37;;;;;;;-143.84;60.18;45060.50;5070283;28;20446;-52
2023/05/20 00:07:32;;;;;;;8.93;7.30;;;;;;;-143.84;60.31;45049.06;5070296;28;20441;-53
2023/05/20 00:10:00;;;;;;;8.70;6.57;;;;;;;-143.84;60.57;45050.97;5070111;28;20514;-53
2023/05/20 00:12:28;;;;;;;7.80;7.00;;;;;;;-143.84;60.11;45064.31;5069855;28;20442;-53
2023/05/20 00:14:55;;;;;;;10.87;7.40;;;;;;;-143.84;60.50;45071.91;5070025;28;20449;-53
2023/05/20 00:17:22;;;;;;;7.37;6.67;;;;;;;-143.84;60.53;45052.88;5069890;28;20491;-52
2023/05/20 00:19:49;;;;;;;9.77;7.53;;;;;;;-143.84;60.67;45070.00;5069179;28;20439;-53
2023/05/20 00:22:17;;;;;;;6.90;6.20;;;;;;;-143.84;60.95;45050.97;5070121;28;20541;-53
2023/05/20 00:24:44;;;;;;;11.60;7.67;;;;;;;-143.84;60.78;45035.75;5069909;28;20453;-53
2023/05/20 00:27:11;;;;;;;9.37;7.40;;;;;;;-143.84;61.24;45079.53;5069372;28;20955;-53
2023/05/20 00:29:39;;;;;;;14.70;6.80;;;;;;;-143.84;61.38;45075.72;5069955;28;20437;-53
2023/05/20 00:32:07;;;;;;;10.30;7.50;;;;;;;-143.84;61.38;45068.13;5069628;28;20538;-53
2023/05/20 00:34:34;;;;;;;7.57;6.77;;;;;;;-143.84;61.63;45068.13;5069711;28;20443;-53
2023/05/20 00:37:01;;;;;;;10.10;6.60;;;;;;;-143.84;61.92;45077.63;5069591;28;20506;-52
2023/05/20 00:39:29;;;;;;;9.83;6.37;;;;;;;-143.84;62.16;45083.34;5069405;28;20477;-52
2023/05/20 00:41:59;;;;;;;7.03;6.30;;;;;;;-143.84;62.23;45071.91;5069602;28;20452;-52
2023/05/20 00:44:26;;;;;;;8.87;7.17;;;;;;;-143.84;62.49;45070.00;5069453;28;20850;-52
2023/05/20 00:46:56;;;;;;;10.53;7.60;;;;;;;-143.84;62.82;45062.41;5069326;28;20811;-52
2023/05/20 00:49:23;;;;;;;13.83;7.30;;;;;;;-143.84;63.06;45066.22;5069463;28;20433;-53
2023/05/20 00:51:50;;;;;;;12.63;6.73;;;;;;;-143.84;63.08;45050.97;5069178;28;20528;-53
2023/05/20 00:54:17;;;;;;;11.17;6.50;;;;;;;-143.84;63.50;45070.00;5069214;28;20502;-52
2023/05/20 00:56:45;;;;;;;7.90;7.10;;;;;;;-143.84;63.80;45068.13;5069314;28;20441;-52
2023/05/20 00:59:12;;;;;;;12.23;7.10;;;;;;;-143.84;63.74;45066.22;5069069;28;20485;-53
2023/05/20 01:01:40;;;;;;;7.00;6.40;;;;;;;-143.84;63.85;45049.06;5069079;28;20503;-52
2023/05/20 01:04:09;;;;;;;12.27;7.13;;;;;;;-143.84;64.22;45068.13;5069145;28;20441;-52
2023/05/20 01:06:37;;;;;;;11.40;7.47;;;;;;;-143.84;64.50;45071.91;5069200;28;20506;-53
2023/05/20 01:09:05;;;;;;;6.77;6.17;;;;;;;-143.84;64.54;45075.72;5069047;28;20438;-52
2023/05/20 01:11:37;;;;;;;9.83;6.60;;;;;;;-143.84;64.84;45039.53;5069236;28;20445;-52
2023/05/20 01:14:08;;;;;;;14.37;7.90;;;;;;;-143.84;64.97;45062.41;5069301;28;20441;-53
2023/05/20 01:16:36;;;;;;;8.90;6.40;;;;;;;-143.84;65.13;45049.06;5069046;28;20507;-53
2023/05/20 01:19:08;;;;;;;10.43;7.43;;;;;;;-143.84;65.09;45068.13;5068900;28;20476;-52
2023/05/20 01:21:37;;;;;;;14.00;7.83;;;;;;;-143.84;65.40;45081.44;5068958;28;20471;-53
2023/05/20 01:24:06;;;;;;;10.90;8.17;;;;;;;-143.84;65.48;45058.59;5069133;28;20433;-52
2023/05/20 01:26:37;;;;;;;11.07;7.00;;;;;;;-143.84;65.42;45043.34;5068848;28;20501;-54
2023/05/20 01:29:04;;;;;;;15.00;7.43;;;;;;;-143.84;65.65;45077.63;5068904;28;20473;-53
2023/05/20 01:31:35;;;;;;;9.03;7.60;;;;;;;-143.84;65.17;45077.63;5068678;28;20441;-52
2023/05/20 01:34:02;;;;;;;8.20;7.37;;;;;;;-143.84;65.06;45077.63;5068971;28;20444;-53
2023/05/20 01:36:32;;;;;;;8.80;7.00;;;;;;;-143.84;65.13;45068.13;5068737;28;20445;-53
2023/05/20 01:39:00;;;;;;;11.33;7.07;;;;;;;-143.84;65.14;45079.53;5068799;28;20481;-52
2023/05/20 01:41:30;;;;;;;7.73;6.93;;;;;;;-143.84;65.19;45070.00;5068801;28;20488;-53
2023/05/20 01:43:57;;;;;;;8.50;7.57;;;;;;;-143.84;65.24;45068.13;5068739;28;20453;-53
2023/05/20 01:46:24;;;;;;;7.20;6.50;;;;;;;-143.84;65.36;45064.31;5068876;28;20488;-52
2023/05/20 01:48:51;;;;;;;12.40;6.77;;;;;;;-143.84;64.99;45073.81;5068686;28;20514;-53
2023/05/20 01:51:18;;;;;;;15.73;7.50;;;;;;;-143.84;65.03;45066.22;5068562;28;20441;-53
2023/05/20 01:53:45;;;;;;;8.70;6.40;;;;;;;-143.84;65.22;45064.31;5068472;28;20494;-52
2023/05/20 01:56:13;;;;;;;8.30;6.67;;;;;;;-143.84;65.30;45064.31;5068786;28;20919;-53
2023/05/20 01:58:42;;;;;;;9.40;7.30;;;;;;;-143.84;65.42;45083.34;5068552;28;20485;-52
2023/05/20 02:01:09;;;;;;;14.60;7.10;;;;;;;-143.84;65.90;45064.31;5068590;28;20460;-52
2023/05/20 02:03:36;;;;;;;9.10;7.37;;;;;;;-143.84;66.15;45050.97;5068631;28;20515;-53
2023/05/20 02:06:03;;;;;;;7.37;6.60;;;;;;;-143.84;66.47;45062.41;5068652;28;20446;-52
2023/05/20 02:08:30;;;;;;;8.73;7.07;;;;;;;-143.84;66.98;45066.22;5068590;28;20441;-52
2023/05/20 02:10:57;;;;;;;12.13;7.40;;;;;;;-143.84;67.15;45070.00;5068428;28;20463;-53
2023/05/20 02:13:25;;;;;;;13.80;7.50;;;;;;;-143.84;67.48;45070.00;5068396;28;20450;-52
2023/05/20 02:15:54;;;;;;;10.00;6.70;;;;;;;-143.84;67.47;45073.81;5068622;28;20448;-53
2023/05/20 02:18:21;;;;;;;11.37;7.20;;;;;;;-143.84;68.08;45075.72;5068546;28;20546;-53
2023/05/20 02:20:48;;;;;;;9.13;6.80;;;;;;;-143.84;68.17;45062.41;5068160;28;20437;-52
2023/05/20 02:23:15;;;;;;;12.80;7.70;;;;;;;-143.84;68.47;45071.91;5068113;28;20445;-53
2023/05/20 02:25:43;;;;;;;10.27;6.40;;;;;;;-143.84;68.35;45066.22;5068250;28;20478;-52
2023/05/20 02:28:10;;;;;;;9.47;6.60;;;;;;;-143.84;68.55;45052.88;5067928;28;20500;-53
2023/05/20 02:30:37;;;;;;;8.27;6.27;;;;;;;-143.84;68.68;45085.25;5068402;28;20440;-52
2023/05/20 02:33:08;;;;;;;9.03;7.03;;;;;;;-143.84;68.56;45071.91;5068310;28;20506;-53
2023/05/20 02:35:35;;;;;;;9.73;8.00;;;;;;;-143.84;68.37;45070.00;5068276;28;21037;-52
2023/05/20 02:38:02;;;;;;;9.93;7.30;;;;;;;-143.84;68.29;45071.91;5068463;28;20438;-53
2023/05/20 02:40:29;;;;;;;7.83;6.33;;;;;;;-143.84;68.34;45090.97;5068138;28;20437;-53
2023/05/20 02:42:56;;;;;;;9.97;7.13;;;;;;;-143.84;68.58;45071.91;5068960;28;20445;-53
2023/05/20 02:45:23;;;;;;;8.87;6.63;;;;;;;-143.84;68.15;45068.13;5071713;28;20486;-53
2023/05/20 02:47:50;;;;;;;9.80;7.13;;;;;;;-143.84;68.48;45090.97;5071722;28;20441;-53
2023/05/20 02:50:19;;;;;;;9.73;6.67;;;;;;;-143.84;68.80;45071.91;5071747;28;20445;-53
2023/05/20 02:52:46;;;;;;;13.00;7.53;;;;;;;-143.84;68.97;45049.06;5071738;28;20433;-53
2023/05/20 02:55:14;;;;;;;9.67;7.10;;;;;;;-143.84;69.09;45083.34;5071602;28;20437;-53
2023/05/20 02:57:41;;;;;;;7.73;6.93;;;;;;;-143.84;68.89;45075.72;5071611;28;20441;-53
2023/05/20 03:00:10;;;;;;;16.50;6.67;;;;;;;-143.84;69.03;45073.81;5071504;28;20994;-53
2023/05/20 03:02:37;;;;;;;26.93;6.80;;;;;;;-143.84;68.83;45058.59;5071493;28;20814;-53
2023/05/20 03:05:05;;;;;;;10.67;8.03;;;;;;;-143.84;68.68;45056.69;5071440;28;20471;-53
2023/05/20 03:07:35;;;;;;;12.50;7.37;;;;;;;-143.84;68.14;45064.31;5071388;28;20430;-53
2023/05/20 03:10:03;;;;;;;9.47;6.77;;;;;;;-143.84;67.77;45096.66;5071752;28;20472;-53
2023/05/20 03:12:31;;;;;;;10.00;6.50;;;;;;;-143.84;67.80;45068.13;5071382;28;20444;-53
2023/05/20 03:14:59;;;;;;;16.43;7.00;;;;;;;-143.84;67.74;45087.16;5071273;28;20452;-53
2023/05/20 03:17:26;;;;;;;12.17;7.50;;;;;;;-143.84;68.10;45079.53;5071270;28;20532;-53
2023/05/20 03:19:53;;;;;;;11.03;6.87;;;;;;;-143.84;67.70;45081.44;5071061;28;20546;-53
2023/05/20 03:22:20;;;;;;;8.50;6.30;;;;;;;-143.84;67.29;45075.72;5071009;28;20437;-53
2023/05/20 03:24:49;;;;;;;9.40;7.00;;;;;;;-143.84;67.39;45090.97;5071399;28;20978;-53
2023/05/20 03:27:16;;;;;;;16.70;7.17;;;;;;;-143.84;67.91;45079.53;5070890;28;20488;-52
2023/05/20 03:29:43;;;;;;;7.67;6.87;;;;;;;-143.84;67.50;45079.53;5071119;28;20454;-53
2023/05/20 03:32:10;;;;;;;15.33;6.60;;;;;;;-143.84;67.73;45064.31;5070894;28;20442;-53
2023/05/20 03:34:37;;;;;;;8.17;6.77;;;;;;;-143.84;67.73;45064.31;5070736;28;20445;-53
2023/05/20 03:37:04;;;;;;;9.87;6.30;;;;;;;-143.84;68.04;45062.41;5070735;28;21002;-53
2023/05/20 03:39:31;;;;;;;11.40;6.67;;;;;;;-143.84;68.18;45098.56;5070882;28;20488;-53
2023/05/20 03:42:00;;;;;;;7.27;6.57;;;;;;;-143.84;68.30;45037.66;5070752;28;20473;-53
2023/05/20 03:44:27;;;;;;;6.80;5.83;;;;;;;-143.84;68.48;45052.88;5070790;28;20449;-53
2023/05/20 03:46:54;;;;;;;14.20;6.50;;;;;;;-143.84;68.96;45073.81;5070647;28;20475;-53
2023/05/20 03:49:21;;;;;;;9.60;6.50;;;;;;;-143.84;69.61;45075.72;5070341;28;20449;-53
2023/05/20 03:51:48;;;;;;;8.93;6.87;;;;;;;-143.84;70.18;45079.53;5070337;28;20452;-52
2023/05/20 03:54:16;;;;;;;7.90;5.93;;;;;;;-143.84;70.88;45060.50;5070471;28;20437;-52
2023/05/20 03:56:45;;;;;;;7.90;7.10;;;;;;;-143.84;71.08;45066.22;5070377;28;20510;-52
2023/05/20 03:59:14;;;;;;;7.23;6.53;;;;;;;-143.84;71.62;45050.97;5070450;28;20477;-52
2023/05/20 04:01:41;;;;;;;6.87;6.03;;;;;;;-143.84;72.42;45052.88;5070467;28;20532;-57
2023/05/20 04:04:08;;;;;;;9.00;6.20;;;;;;;-143.84;73.40;45070.00;5070231;28;20968;-53
2023/05/20 04:06:35;;;;;;;12.50;6.53;;;;;;;-143.84;74.99;45047.16;5070235;28;20429;-52
2023/05/20 04:09:02;;;;;;;12.53;7.07;;;;;;;-143.84;76.56;45043.34;5070260;28;20526;-53
2023/05/20 04:11:29;;;;;;;8.40;6.77;;;;;;;-143.84;77.63;45035.75;5070080;28;20441;-53
2023/05/20 04:13:57;;;;;;;13.30;7.00;;;;;;;-143.84;77.88;45022.41;5070136;28;21004;-53
2023/05/20 04:16:26;;;;;;;10.60;8.37;;;;;;;-143.84;78.93;45010.97;5069965;28;20453;-52
2023/05/20 04:18:53;;;;;;;8.50;6.83;;;;;;;-143.84;79.65;44961.47;5070262;28;20535;-55
2023/05/20 04:21:20;;;;;;;9.77;7.77;;;;;;;-143.84;80.29;44963.38;5070043;28;20498;-52
2023/05/20 04:23:47;;;;;;;9.00;7.30;;;;;;;-143.84;80.44;44942.44;5069822;28;20486;-52
2023/05/20 04:26:14;;;;;;;14.80;7.60;;;;;;;-143.84;80.88;44961.47;5069848;28;20449;-53
2023/05/20 04:28:41;;;;;;;12.10;7.07;;;;;;;-143.84;81.51;44929.09;5069507;28;20898;-52
2023/05/20 04:31:09;;;;;;;8.17;7.37;;;;;;;-143.84;82.16;44883.41;5069645;28;20433;-53
2023/05/20 04:33:38;;;;;;;13.43;8.37;;;;;;;-143.84;82.61;44891.03;5069554;28;20442;-53
2023/05/20 04:36:06;;;;;;;11.80;7.37;;;;;;;-143.84;82.32;44885.31;5070067;28;20506;-52
2023/05/20 04:38:34;;;;;;;11.23;8.10;;;;;;;-143.84;82.83;44870.09;5069709;28;20502;-52
2023/05/20 04:41:01;;;;;;;11.53;7.90;;;;;;;-143.84;82.87;44866.28;5069484;28;20502;-52
2023/05/20 04:43:30;;;;;;;8.17;7.30;;;;;;;-143.84;82.72;44864.38;5069383;28;20441;-52
2023/05/20 04:45:57;;;;;;;13.80;7.70;;;;;;;-143.84;82.54;44873.88;5069286;28;20931;-52
2023/05/20 04:48:24;;;;;;;12.43;7.57;;;;;;;-143.84;82.64;44881.50;5069080;28;20434;-52
2023/05/20 04:50:53;;;;;;;16.93;7.33;;;;;;;-143.84;82.44;44892.94;5069381;28;20442;-52
2023/05/20 04:53:20;;;;;;;10.97;7.70;;;;;;;-143.84;82.67;44871.97;5069366;28;20453;-52
2023/05/20 04:55:48;;;;;;;10.80;6.97;;;;;;;-143.84;83.18;44849.13;5069242;28;20491;-52
2023/05/20 04:58:16;;;;;;;13.37;7.73;;;;;;;-143.84;84.15;44759.66;5069151;28;20496;-52
2023/05/20 05:00:44;;;;;;;10.10;8.43;;;;;;;-143.84;84.91;44651.13;5069027;28;21003;-52
2023/05/20 05:03:12;;;;;;;9.30;7.97;;;;;;;-143.84;85.40;44586.38;5069306;28;20510;-53
2023/05/20 05:05:39;;;;;;;11.90;8.50;;;;;;;-143.84;85.29;44597.81;5068455;28;20455;-53
2023/05/20 05:08:10;;;;;;;12.00;8.70;;;;;;;-143.84;85.14;44626.38;5069407;28;20471;-53
2023/05/20 05:10:37;;;;;;;15.27;8.97;;;;;;;-143.84;85.14;44643.50;5069004;28;20460;-53
2023/05/20 05:13:04;;;;;;;13.33;8.03;;;;;;;-143.84;85.54;44569.25;5068278;28;20460;-53
2023/05/20 05:15:31;;;;;;;9.23;7.53;;;;;;;-143.84;85.85;44529.28;5050248;28;20461;-53
2023/05/20 05:17:59;;;;;;;12.57;9.37;;;;;;;-143.84;85.60;44534.97;5049108;28;20504;-53
2023/05/20 05:20:26;;;;;;;13.10;8.47;;;;;;;-143.84;85.64;44519.75;5049003;28;20551;-53
2023/05/20 05:22:53;;;;;;;11.43;7.73;;;;;;;-143.84;85.25;44632.09;5048834;28;20496;-53
2023/05/20 05:25:22;;;;;;;14.77;7.93;;;;;;;-143.84;84.46;44693.00;5048683;28;20461;-53
2023/05/20 05:27:49;;;;;;;12.17;8.10;;;;;;;;;;5047923;28;20498;-53
2023/05/20 05:30:16;;;;;;;12.47;8.07;;;;;;;-143.84;83.25;44847.22;5057268;28;21429;-53
2023/05/20 05:32:44;;;;;;;7.90;7.20;;;;;;;-143.84;82.64;44864.38;5061595;28;20498;-53
2023/05/20 05:35:11;;;;;;;14.10;7.63;;;;;;;-143.84;82.11;44902.44;5060751;28;20456;-53
2023/05/20 05:37:38;;;;;;;12.13;8.60;;;;;;;-143.84;81.28;44948.16;5061597;28;20492;-53
2023/05/20 05:40:07;;;;;;;10.20;8.30;;;;;;;-143.84;81.30;44972.91;5061538;28;20603;-53
2023/05/20 05:42:36;;;;;;;12.80;8.13;;;;;;;-143.84;80.50;44967.19;5062604;28;20433;-53
2023/05/20 05:45:03;;;;;;;9.97;7.50;;;;;;;-143.84;80.73;44953.88;5062526;28;20511;-53
2023/05/20 05:47:31;;;;;;;14.73;8.23;;;;;;;-143.84;80.53;44978.63;5062378;28;20441;-53
2023/05/20 05:49:58;;;;;;;10.40;9.30;;;;;;;-143.84;80.67;44948.16;5060168;28;20429;-53
2023/05/20 05:52:26;;;;;;;13.53;7.90;;;;;;;-143.84;80.27;44980.53;5062252;28;20448;-53
2023/05/20 05:54:54;;;;;;;14.33;8.20;;;;;;;-143.84;79.76;44990.03;5060304;28;20471;-53
2023/05/20 05:57:21;;;;;;;8.20;7.40;;;;;;;-143.84;79.68;44972.91;5062310;28;20665;-53
2023/05/20 05:59:50;;;;;;;13.70;7.93;;;;;;;-143.84;79.59;44988.13;5059676;28;20481;-52
2023/05/20 06:02:17;;;;;;;11.00;7.70;;;;;;;-143.84;78.46;45014.78;5061984;28;20521;-53
2023/05/20 06:04:44;;;;;;;12.10;6.63;;;;;;;-143.84;76.80;45028.13;5062316;28;20786;-53
2023/05/20 06:07:11;;;;;;;8.83;6.63;;;;;;;-143.84;76.52;45041.44;5061704;28;20461;-53
2023/05/20 06:09:39;;;;;;;11.30;7.17;;;;;;;-143.84;77.06;45035.75;5060109;28;20970;-53
2023/05/20 06:12:06;;;;;;;8.50;6.80;;;;;;;-143.84;76.83;45035.75;5062071;28;20534;-53
2023/05/20 06:14:33;;;;;;;8.07;6.27;;;;;;;-143.84;76.66;45041.44;5062096;28;20527;-53
2023/05/20 06:17:02;;;;;;;7.10;6.40;;;;;;;-143.84;76.32;45050.97;5062271;28;20477;-52
2023/05/20 06:19:29;;;;;;;9.20;6.70;;;;;;;-143.84;75.95;45033.84;5063563;28;20551;-53
2023/05/20 06:21:57;;;;;;;8.33;6.60;;;;;;;-143.84;75.05;45060.50;5065652;28;20449;-53
2023/05/20 06:24:24;;;;;;;7.17;6.07;;;;;;;-143.84;74.47;45041.44;5065798;28;20441;-53
2023/05/20 06:26:51;;;;;;;7.03;6.17;;;;;;;-143.84;74.32;45079.53;5065631;28;20460;-53
2023/05/20 06:29:18;;;;;;;9.67;5.40;;;;;;;-143.84;72.44;45056.69;5061768;28;20493;-53
2023/05/20 06:31:45;;;;;;;22.07;6.33;;;;;;;-143.84;71.38;45081.44;5064809;28;21020;-53
2023/05/20 06:34:14;;;;;;;8.17;5.40;;;;;;;-143.84;70.59;45075.72;5062807;28;21035;-53
2023/05/20 06:36:41;;;;;;;6.27;5.60;;;;;;;-143.84;69.54;45052.88;5069541;28;20697;-53
2023/05/20 06:39:11;;;;;;;5.90;5.30;;;;;;;-143.84;68.12;45035.75;5072034;28;20437;-52
2023/05/20 06:41:39;;;;;;;8.33;5.50;;;;;;;-143.84;66.92;45083.34;5061073;28;20488;-54
2023/05/20 06:44:06;;;;;;;7.20;5.50;;;;;;;-143.84;65.61;45056.69;5065158;28;20438;-54
2023/05/20 06:46:34;;;;;;;6.00;5.27;;;;;;;-143.84;64.78;45033.84;5065380;28;20453;-53
2023/05/20 06:49:01;;;;;;;5.37;4.90;;;;;;;-143.84;64.32;45077.63;5065386;28;20445;-53
2023/05/20 06:51:30;;;;;;;5.47;5.07;;;;;;;-143.84;62.54;45079.53;5063610;28;20464;-54
2023/05/20 06:53:57;;;;;;;10.37;5.50;;;;;;;-143.84;62.23;45077.63;5065486;28;20469;-54
2023/05/20 06:56:24;;;;;;;6.60;5.70;;;;;;;-143.84;62.63;45064.31;5071648;28;20448;-53
2023/05/20 06:58:51;;;;;;;8.80;4.90;;;;;;;-143.84;61.46;45075.72;5071454;28;20452;-54
2023/05/20 07:01:18;;;;;;;11.63;5.47;;;;;;;-143.84;61.58;45041.44;5071350;28;20484;-53
2023/05/20 07:03:45;;;;;;;7.43;5.97;;;;;;;-143.84;60.30;45083.34;5061911;28;20485;-54
2023/05/20 07:06:12;;;;;;;8.60;5.40;;;;;;;-143.84;57.32;45068.13;5063672;28;20561;-53
2023/05/20 07:08:41;;;;;;;7.43;5.20;;;;;;;-143.84;58.11;45075.72;5064869;28;20518;-53
2023/05/20 07:11:08;;;;;;;14.27;5.20;;;;;;;-143.84;58.64;45075.72;5064865;28;21717;-53
2023/05/20 07:13:35;;;;;;;7.43;5.57;;;;;;;-143.84;59.50;45071.91;5062728;28;20519;-54
2023/05/20 07:16:02;;;;;;;7.93;6.20;;;;;;;-143.84;59.69;45035.75;5064761;28;20491;-54
2023/05/20 07:18:30;;;;;;;9.03;5.60;;;;;;;-143.84;59.97;45050.97;5064529;28;20440;-54
2023/05/20 07:20:57;;;;;;;13.97;5.77;;;;;;;-143.84;60.39;45094.78;5063268;28;20502;-54
2023/05/20 07:23:24;;;;;;;6.87;6.17;;;;;;;-143.84;60.01;45075.72;5062736;28;20442;-54
2023/05/20 07:25:53;;;;;;;5.60;5.10;;;;;;;-143.84;59.65;45089.06;5064283;28;20442;-54
2023/05/20 07:28:21;;;;;;;6.17;5.63;;;;;;;-143.84;59.85;45058.59;5063639;28;20485;-54
2023/05/20 07:30:49;;;;;;;16.80;6.77;;;;;;;-143.84;60.28;45090.97;5064260;28;20508;-54
2023/05/20 07:33:16;;;;;;;5.93;5.27;;;;;;;-143.84;61.41;45064.31;5062542;28;20430;-54
2023/05/20 07:35:44;;;;;;;7.90;6.37;;;;;;;-143.84;61.55;45073.81;5061658;28;20457;-54
2023/05/20 07:38:12;;;;;;;9.57;5.70;;;;;;;-143.84;62.58;45062.41;5064026;28;20974;-54
2023/05/20 07:40:39;;;;;;;9.70;6.20;;;;;;;-143.84;63.37;45049.06;5063864;28;20486;-54
2023/05/20 07:43:08;;;;;;;7.00;6.30;;;;;;;-143.84;63.19;45068.13;5062471;28;20473;-54
2023/05/20 07:45:36;;;;;;;8.37;7.43;;;;;;;-143.84;64.66;45079.53;5066451;28;20450;-56
2023/05/20 07:48:03;;;;;;;9.67;6.70;;;;;;;-143.84;65.45;45079.53;5067555;28;20531;-56
2023/05/20 07:50:30;;;;;;;8.40;7.00;;;;;;;-143.84;66.35;45066.22;5068060;28;20456;-56
2023/05/20 07:52:57;;;;;;;8.70;7.30;;;;;;;-143.84;67.03;45062.41;5064481;28;20442;-56
2023/05/20 07:55:24;;;;;;;11.97;6.23;;;;;;;-143.84;69.57;45058.59;5066540;28;20441;-56
2023/05/20 07:57:52;;;;;;;11.53;8.00;;;;;;;-143.84;73.19;45045.25;5067210;28;20449;-56
2023/05/20 08:00:21;;;;;;;11.77;7.03;;;;;;;-143.84;74.55;45039.53;5066715;28;21257;-56
2023/05/20 08:02:48;;;;;;;9.17;7.87;;;;;;;-143.84;75.95;45026.22;5065607;28;20458;-56
2023/05/20 08:05:15;;;;;;;14.73;8.27;;;;;;;-143.84;77.11;45003.38;5065633;28;20441;-56
2023/05/20 08:07:42;;;;;;;11.50;8.07;;;;;;;-143.84;78.25;44982.41;5066931;28;20858;-56
2023/05/20 08:10:10;;;;;;;13.20;8.10;;;;;;;-143.84;78.64;44993.84;5066983;28;20454;-56
2023/05/20 08:12:37;;;;;;;13.10;8.90;;;;;;;-143.84;80.19;44908.16;5065593;28;20458;-56
2023/05/20 08:15:06;;;;;;;9.33;8.43;;;;;;;-143.84;81.38;44885.31;5066243;28;20429;-56
2023/05/20 08:17:35;;;;;;;9.83;8.80;;;;;;;-143.84;82.23;44841.53;5066388;28;20480;-56
2023/05/20 08:20:03;;;;;;;13.87;9.20;;;;;;;-143.84;82.86;44811.06;5065929;28;20814;-56
2023/05/20 08:22:30;;;;;;;12.53;9.57;;;;;;;-143.84;83.60;44712.06;5063579;28;21069;-56
2023/05/20 08:24:58;;;;;;;20.23;9.17;;;;;;;-143.84;84.06;44666.34;5065809;28;20465;-56
2023/05/20 08:27:25;;;;;;;12.50;8.60;;;;;;;-143.84;83.92;44683.50;5066558;28;20481;-56
2023/05/20 08:29:52;;;;;;;15.10;8.77;;;;;;;-143.84;83.63;44706.34;5064111;28;20453;-56
2023/05/20 08:32:19;;;;;;;11.07;9.37;;;;;;;-143.84;83.92;44733.00;5065603;28;20446;-56
2023/05/20 08:34:49;;;;;;;12.03;10.30;;;;;;;-143.84;84.42;44618.75;5065989;28;20522;-56
2023/05/20 08:37:16;;;;;;;11.10;10.00;;;;;;;-143.84;84.75;44592.09;5065552;28;20465;-56
2023/05/20 08:39:47;;;;;;;14.53;10.53;;;;;;;-143.84;85.25;44491.19;5066272;28;20523;-56
2023/05/20 08:42:15;;;;;;;11.13;10.13;;;;;;;-143.84;85.53;44483.56;5063784;28;20487;-56
2023/05/20 08:44:43;;;;;;;13.33;9.90;;;;;;;-143.84;85.33;44472.16;5065916;28;20445;-56
2023/05/20 08:47:10;;;;;;;11.20;9.80;;;;;;;-143.84;84.56;44618.75;5066875;28;20541;-56
2023/05/20 08:49:38;;;;;;;12.83;9.37;;;;;;;-143.84;84.40;44643.50;5065519;28;20594;-56
2023/05/20 08:52:12;;;;;;;12.97;10.60;;;;;;;-143.84;84.00;44675.88;5066454;28;20863;-56
2023/05/20 08:54:45;;;;;;;11.93;10.43;;;;;;;-143.84;83.57;44761.56;5065333;28;20962;-56
2023/05/20 08:57:12;;;;;;;17.10;9.47;;;;;;;-143.84;83.67;44717.75;5065745;28;20441;-56
2023/05/20 08:59:42;;;;;;;14.43;9.80;;;;;;;-143.84;83.47;44733.00;5066227;28;20448;-56
2023/05/20 09:02:09;;;;;;;13.57;10.43;;;;;;;-143.84;83.31;44755.84;5065120;28;20543;-56
2023/05/20 09:04:37;;;;;;;14.17;10.50;;;;;;;-143.84;83.26;44753.94;5065379;28;20615;-56
2023/05/20 09:07:06;;;;;;;13.43;10.70;;;;;;;-143.84;82.68;44822.47;5065729;28;21050;-56
2023/05/20 09:09:35;;;;;;;13.17;11.37;;;;;;;-143.84;82.67;44832.00;5064478;28;20442;-56
2023/05/20 09:12:03;;;;;;;14.40;9.77;;;;;;;-143.84;82.66;44809.16;5065829;28;20449;-56
2023/05/20 09:14:30;;;;;;;12.60;10.07;;;;;;;-143.84;82.47;44847.22;5064370;28;20536;-56
2023/05/20 09:16:57;;;;;;;12.43;9.93;;;;;;;-143.84;80.62;44950.06;5063979;28;20450;-56
2023/05/20 09:19:25;;;;;;;12.97;10.70;;;;;;;-143.84;79.41;44965.28;5062187;28;20541;-56
2023/05/20 09:21:54;;;;;;;12.40;9.60;;;;;;;-143.84;78.92;45009.09;5065419;28;20489;-56
2023/05/20 09:24:25;;;;;;;15.23;9.93;;;;;;;-143.84;79.33;44978.63;5063439;28;20438;-56
2023/05/20 09:26:53;;;;;;;13.17;9.87;;;;;;;-143.84;79.56;44936.72;5065142;28;20513;-56
2023/05/20 09:29:20;;;;;;;14.23;11.03;;;;;;;-143.84;79.82;44940.53;5065114;28;20444;-56
2023/05/20 09:31:48;;;;;;;12.43;10.47;;;;;;;-143.84;79.77;44957.66;5065322;28;20468;-56
2023/05/20 09:34:15;;;;;;;18.53;10.30;;;;;;;-143.84;79.31;44969.09;5063576;28;20464;-56
2023/05/20 09:36:44;;;;;;;12.17;10.80;;;;;;;-143.84;78.89;45009.09;5065830;28;21042;-56
2023/05/20 09:39:14;;;;;;;14.07;10.40;;;;;;;-143.84;78.61;44957.66;5065135;28;21112;-56
2023/05/20 09:41:53;;;;;;;10.90;9.67;;;;;;;-143.84;78.57;44969.09;5063440;28;20553;-55
2023/05/20 09:44:22;;;;;;;12.60;9.80;;;;;;;-143.84;78.37;44980.53;5059233;28;20454;-55
2023/05/20 09:46:51;;;;;;;15.33;10.07;;;;;;;-143.84;77.97;44961.47;5060547;28;20437;-55
2023/05/20 09:49:20;;;;;;;11.30;10.20;;;;;;;-143.84;77.37;44965.28;5058391;28;20453;-55
2023/05/20 09:51:49;;;;;;;11.03;9.63;;;;;;;-143.84;76.95;44990.03;5060645;28;20455;-55
2023/05/20 09:54:19;;;;;;;14.73;10.07;;;;;;;-143.84;77.20;45003.38;5062272;28;20439;-55
2023/05/20 09:56:48;;;;;;;19.93;9.07;;;;;;;-143.84;76.94;44999.56;5063867;28;20447;-55
2023/05/20 09:59:17;;;;;;;10.43;9.40;;;;;;;-143.84;76.43;44995.75;5061830;28;20454;-55
2023/05/20 10:01:45;;;;;;;14.23;9.43;;;;;;;-143.84;76.74;45001.47;5062581;28;20474;-55
2023/05/20 10:04:15;;;;;;;11.90;10.10;;;;;;;-143.84;77.09;44951.97;5061375;28;20553;-55
2023/05/20 10:06:56;;;;;;;11.87;10.20;;;;;;;-143.84;76.88;44972.91;5063445;28;20464;-55
2023/05/20 10:09:39;;;;;;;10.40;9.37;;;;;;;-143.84;75.57;45001.47;5063040;28;20449;-52
2023/05/20 10:12:18;;;;;;;15.40;9.30;;;;;;;-143.84;74.78;44984.31;5062948;28;20506;-52
2023/05/20 10:14:56;;;;;;;14.30;10.03;;;;;;;-143.84;74.67;44999.56;5064251;28;20545;-52
2023/05/20 10:17:32;;;;;;;8.73;7.90;;;;;;;-143.84;71.92;45022.41;5064012;28;21406;-53
2023/05/20 10:20:00;;;;;;;15.87;8.10;;;;;;;-143.84;68.78;45031.94;5061161;28;20876;-52
2023/05/20 10:22:28;;;;;;;8.97;6.90;;;;;;;-143.84;61.18;45033.84;5063501;28;21436;-52
2023/05/20 10:24:59;;;;;;;8.83;6.20;;;;;;;-143.84;58.64;45045.25;5063580;28;20542;-52
2023/05/20 10:27:27;;;;;;;9.77;5.80;;;;;;;-143.84;55.17;45022.41;5064271;28;20485;-52
2023/05/20 10:29:57;;;;;;;14.60;5.43;;;;;;;-143.84;52.89;45026.22;5064194;28;20446;-52
2023/05/20 10:32:25;;;;;;;12.00;6.07;;;;;;;-143.84;50.31;45022.41;5062522;28;20464;-52
2023/05/20 10:34:52;;;;;;;9.70;5.40;;;;;;;-143.84;46.90;45007.19;5063215;28;20478;-54
2023/05/20 10:37:27;;;;;;;6.23;4.67;;;;;;;-143.84;42.85;44995.75;5064145;28;20475;-55
2023/05/20 10:40:05;;;;;;;12.30;5.07;;;;;;;-143.84;43.09;44984.31;5066489;28;20578;-56
2023/05/20 10:42:34;;;;;;;9.30;4.77;;;;;;;-143.84;40.86;45016.69;5065207;28;20512;-57
2023/05/20 10:45:02;;;;;;;10.90;4.97;;;;;;;-143.84;42.59;44993.84;5061776;28;20794;-55
2023/05/20 10:47:29;;;;;;;26.53;4.93;;;;;;;-143.84;42.14;45005.28;5063756;28;20505;-55
2023/05/20 10:49:56;;;;;;;8.20;5.30;;;;;;;-143.84;41.86;45001.47;5062707;28;20825;-55
2023/05/20 10:52:25;;;;;;;10.60;4.60;;;;;;;-143.84;41.00;44990.03;5061865;28;20537;-55
2023/05/20 10:54:56;;;;;;;9.50;4.90;;;;;;;-143.84;39.57;44999.56;5062664;28;20452;-55
2023/05/20 10:57:26;;;;;;;7.53;4.17;;;;;;;-143.84;37.40;44984.31;5063101;28;20463;-55
2023/05/20 10:59:57;;;;;;;7.10;4.10;;;;;;;-143.84;37.64;44972.91;5063051;28;21281;-55
2023/05/20 11:02:27;;;;;;;10.83;4.63;;;;;;;-143.84;37.61;44965.28;5061111;28;20492;-55
2023/05/20 11:04:56;;;;;;;8.53;5.27;;;;;;;-143.84;36.12;45018.59;5061273;28;20449;-55
2023/05/20 11:07:27;;;;;;;6.83;4.17;;;;;;;-143.84;37.19;44986.22;5063563;28;20452;-56
2023/05/20 11:09:55;;;;;;;7.20;4.23;;;;;;;-143.84;36.24;44980.53;5062162;28;20460;-56
2023/05/20 11:12:22;;;;;;;7.53;4.40;;;;;;;-143.84;34.99;44980.53;5061871;28;20891;-56
2023/05/20 11:14:50;;;;;;;7.90;3.50;;;;;;;-143.84;35.35;44965.28;5062280;28;20540;-56